createdAt,value
2019-02-22T00:00:00.535Z,0.00
2019-02-22T00:01:00.535Z,0.00
2019-02-22T00:02:00.526Z,0.00
2019-02-22T00:03:00.522Z,0.00
2019-02-22T00:04:00.513Z,0.00
2019-02-22T00:05:00.504Z,0.00
2019-02-22T00:06:00.499Z,0.00
2019-02-22T00:07:00.491Z,0.00
2019-02-22T00:08:00.486Z,0.00
2019-02-22T00:09:00.479Z,0.00
2019-02-22T00:10:00.471Z,0.00
2019-02-22T00:11:00.478Z,0.00
2019-02-22T00:12:00.462Z,0.00
2019-02-22T00:13:00.450Z,0.00
2019-02-22T00:14:00.447Z,0.00
2019-02-22T00:15:00.444Z,0.00
2019-02-22T00:16:00.434Z,0.00
2019-02-22T00:17:00.424Z,0.00
2019-02-22T00:18:00.422Z,0.00
2019-02-22T00:19:00.422Z,0.00
2019-02-22T00:20:00.416Z,0.00
2019-02-22T00:21:00.404Z,0.00
2019-02-22T00:22:00.401Z,0.00
2019-02-22T00:23:00.388Z,0.00
2019-02-22T00:24:00.382Z,0.00
2019-02-22T00:25:00.371Z,0.00
2019-02-22T00:26:00.363Z,0.00
2019-02-22T00:27:00.359Z,0.00
2019-02-22T00:28:00.349Z,0.00
2019-02-22T00:29:00.345Z,0.00
2019-02-22T00:30:00.403Z,0.00
2019-02-22T00:31:00.333Z,0.00
2019-02-22T00:32:00.324Z,0.00
2019-02-22T00:33:00.322Z,0.00
2019-02-22T00:34:00.346Z,0.00
2019-02-22T00:35:00.430Z,0.00
2019-02-22T00:36:00.419Z,0.00
2019-02-22T00:37:00.312Z,0.00
2019-02-22T00:38:00.285Z,0.00
2019-02-22T00:39:00.285Z,0.00
2019-02-22T00:40:00.316Z,0.00
2019-02-22T00:41:00.272Z,0.00
2019-02-22T00:42:00.258Z,0.00
2019-02-22T00:43:00.261Z,0.00
2019-02-22T00:44:00.255Z,0.00
2019-02-22T00:45:00.443Z,0.00
2019-02-22T00:46:00.230Z,0.00
2019-02-22T00:47:00.226Z,0.00
2019-02-22T00:48:00.223Z,0.00
2019-02-22T00:49:00.213Z,0.00
2019-02-22T00:50:00.323Z,0.00
2019-02-22T00:51:00.199Z,0.00
2019-02-22T00:52:00.194Z,0.00
2019-02-22T00:53:00.189Z,0.00
2019-02-22T00:54:00.186Z,0.00
2019-02-22T00:55:00.438Z,0.00
2019-02-22T00:56:00.169Z,0.00
2019-02-22T00:57:00.159Z,0.00
2019-02-22T00:58:00.152Z,0.00
2019-02-22T00:59:00.146Z,0.00
2019-02-22T01:00:00.334Z,0.00
2019-02-22T01:01:00.138Z,0.00
2019-02-22T01:02:00.130Z,0.00
2019-02-22T01:03:00.121Z,0.00
2019-02-22T01:04:00.115Z,0.00
2019-02-22T01:05:00.291Z,0.00
2019-02-22T01:06:00.101Z,0.00
2019-02-22T01:07:00.096Z,0.00
2019-02-22T01:08:00.087Z,0.00
2019-02-22T01:09:00.077Z,0.00
2019-02-22T01:10:00.152Z,0.00
2019-02-22T01:11:00.064Z,0.00
2019-02-22T01:12:00.059Z,0.00
2019-02-22T01:13:00.062Z,0.00
2019-02-22T01:14:00.049Z,0.00
2019-02-22T01:15:00.042Z,0.00
2019-02-22T01:16:00.035Z,0.00
2019-02-22T01:17:00.026Z,0.00
2019-02-22T01:18:00.021Z,0.00
2019-02-22T01:19:00.016Z,0.00
2019-02-22T01:20:00.011Z,0.00
2019-02-22T01:20:59.999Z,0.00
2019-02-22T01:21:59.991Z,0.00
2019-02-22T01:22:59.984Z,0.00
2019-02-22T01:23:59.984Z,0.00
2019-02-22T01:24:59.975Z,0.00
2019-02-22T01:25:59.967Z,0.00
2019-02-22T01:26:59.960Z,0.00
2019-02-22T01:27:59.953Z,0.00
2019-02-22T01:28:59.943Z,0.00
2019-02-22T01:29:59.935Z,0.00
2019-02-22T01:30:59.932Z,0.00
2019-02-22T01:31:59.920Z,0.00
2019-02-22T01:32:59.916Z,0.00
2019-02-22T01:33:59.913Z,0.00
2019-02-22T01:34:59.904Z,0.00
2019-02-22T01:35:59.890Z,0.00
2019-02-22T01:36:59.887Z,0.00
2019-02-22T01:37:59.885Z,0.00
2019-02-22T01:38:59.878Z,0.00
2019-02-22T01:39:59.869Z,0.00
2019-02-22T01:40:59.864Z,0.00
2019-02-22T01:41:59.853Z,0.00
2019-02-22T01:42:59.848Z,0.00
2019-02-22T01:43:59.834Z,0.00
2019-02-22T01:44:59.844Z,0.00
2019-02-22T01:45:59.831Z,0.00
2019-02-22T01:46:59.825Z,0.00
2019-02-22T01:47:59.812Z,0.00
2019-02-22T01:48:59.801Z,0.00
2019-02-22T01:49:59.794Z,0.00
2019-02-22T01:50:59.788Z,0.00
2019-02-22T01:51:59.784Z,0.00
2019-02-22T01:52:59.774Z,0.00
2019-02-22T01:53:59.768Z,0.00
2019-02-22T01:54:59.761Z,0.00
2019-02-22T01:55:59.753Z,0.00
2019-02-22T01:56:59.753Z,0.00
2019-02-22T01:57:59.742Z,0.00
2019-02-22T01:58:59.730Z,0.00
2019-02-22T01:59:59.727Z,0.00
2019-02-22T02:00:59.717Z,0.00
2019-02-22T02:01:59.713Z,0.00
2019-02-22T02:02:59.704Z,0.00
2019-02-22T02:03:59.699Z,0.00
2019-02-22T02:04:59.688Z,0.00
2019-02-22T02:05:59.682Z,0.00
2019-02-22T02:06:59.679Z,0.00
2019-02-22T02:07:59.667Z,0.00
2019-02-22T02:08:59.664Z,0.00
2019-02-22T02:09:59.658Z,0.00
2019-02-22T02:10:59.652Z,0.00
2019-02-22T02:12:01.786Z,0.00
2019-02-22T02:12:59.628Z,0.00
2019-02-22T02:13:59.624Z,0.00
2019-02-22T02:14:59.619Z,0.00
2019-02-22T02:15:59.618Z,0.00
2019-02-22T02:16:59.612Z,0.00
2019-02-22T02:17:59.602Z,0.00
2019-02-22T02:18:59.593Z,0.00
2019-02-22T02:19:59.587Z,0.00
2019-02-22T02:20:59.575Z,0.00
2019-02-22T02:21:59.569Z,0.00
2019-02-22T02:22:59.563Z,0.00
2019-02-22T02:23:59.557Z,0.00
2019-02-22T02:24:59.547Z,0.00
2019-02-22T02:25:59.540Z,0.00
2019-02-22T02:26:59.535Z,0.00
2019-02-22T02:27:59.528Z,0.00
2019-02-22T02:28:59.527Z,0.00
2019-02-22T02:29:59.521Z,0.00
2019-02-22T02:30:59.513Z,0.00
2019-02-22T02:31:59.500Z,0.00
2019-02-22T02:32:59.492Z,0.00
2019-02-22T02:33:59.492Z,0.00
2019-02-22T02:34:59.477Z,0.00
2019-02-22T02:35:59.473Z,0.00
2019-02-22T02:36:59.468Z,0.00
2019-02-22T02:37:59.464Z,0.00
2019-02-22T02:38:59.450Z,0.00
2019-02-22T02:39:59.443Z,0.00
2019-02-22T02:41:09.856Z,0.00
2019-02-22T02:41:59.433Z,0.00
2019-02-22T02:42:59.426Z,0.00
2019-02-22T02:43:59.420Z,0.00
2019-02-22T02:44:59.409Z,0.00
2019-02-22T02:45:59.399Z,0.00
2019-02-22T02:46:59.399Z,0.00
2019-02-22T02:47:59.386Z,0.00
2019-02-22T02:48:59.382Z,0.00
2019-02-22T02:49:59.399Z,0.00
2019-02-22T02:50:59.369Z,0.00
2019-02-22T02:51:59.366Z,0.00
2019-02-22T02:52:59.351Z,0.00
2019-02-22T02:53:59.344Z,0.00
2019-02-22T02:54:59.340Z,0.00
2019-02-22T02:55:59.331Z,0.00
2019-02-22T02:56:59.323Z,0.00
2019-02-22T02:57:59.315Z,0.00
2019-02-22T02:58:59.309Z,0.00
2019-02-22T02:59:59.308Z,0.00
2019-02-22T03:00:59.297Z,0.00
2019-02-22T03:01:59.292Z,0.00
2019-02-22T03:02:59.285Z,0.00
2019-02-22T03:03:59.280Z,0.00
2019-02-22T03:04:59.280Z,0.00
2019-02-22T03:05:59.257Z,0.00
2019-02-22T03:06:59.251Z,0.00
2019-02-22T03:07:59.245Z,0.00
2019-02-22T03:08:59.240Z,0.00
2019-02-22T03:09:59.240Z,0.00
2019-02-22T03:10:59.225Z,0.00
2019-02-22T03:11:59.221Z,0.00
2019-02-22T03:12:59.214Z,0.00
2019-02-22T03:13:59.206Z,0.00
2019-02-22T03:14:59.198Z,0.00
2019-02-22T03:15:59.186Z,0.00
2019-02-22T03:16:59.183Z,0.00
2019-02-22T03:17:59.175Z,0.00
2019-02-22T03:18:59.165Z,0.00
2019-02-22T03:19:59.157Z,0.00
2019-02-22T03:20:59.152Z,0.00
2019-02-22T03:21:59.185Z,0.00
2019-02-22T03:22:59.140Z,0.00
2019-02-22T03:23:59.133Z,0.00
2019-02-22T03:24:59.127Z,0.00
2019-02-22T03:25:59.125Z,0.00
2019-02-22T03:26:59.111Z,0.00
2019-02-22T03:27:59.104Z,0.00
2019-02-22T03:28:59.094Z,0.00
2019-02-22T03:29:59.086Z,0.00
2019-02-22T03:30:59.092Z,0.00
2019-02-22T03:31:59.076Z,0.00
2019-02-22T03:32:59.068Z,0.00
2019-02-22T03:33:59.062Z,0.00
2019-02-22T03:34:59.055Z,0.00
2019-02-22T03:35:59.054Z,0.00
2019-02-22T03:36:59.037Z,0.00
2019-02-22T03:37:59.030Z,0.00
2019-02-22T03:38:59.024Z,0.00
2019-02-22T03:39:59.015Z,0.00
2019-02-22T03:40:59.007Z,0.00
2019-02-22T03:41:59.005Z,0.00
2019-02-22T03:42:58.995Z,0.00
2019-02-22T03:43:58.988Z,0.00
2019-02-22T03:44:58.981Z,0.00
2019-02-22T03:45:58.978Z,0.00
2019-02-22T03:46:58.974Z,0.00
2019-02-22T03:47:58.959Z,0.00
2019-02-22T03:48:58.954Z,0.00
2019-02-22T03:49:58.941Z,0.00
2019-02-22T03:50:58.936Z,0.00
2019-02-22T03:51:58.931Z,0.00
2019-02-22T03:52:58.924Z,0.00
2019-02-22T03:53:58.943Z,0.00
2019-02-22T03:54:58.910Z,0.00
2019-02-22T03:55:58.905Z,0.00
2019-02-22T03:56:58.893Z,0.00
2019-02-22T03:57:58.890Z,0.00
2019-02-22T03:58:58.891Z,0.00
2019-02-22T03:59:58.879Z,0.00
2019-02-22T04:00:58.871Z,0.00
2019-02-22T04:01:58.858Z,0.00
2019-02-22T04:02:58.852Z,0.00
2019-02-22T04:03:58.842Z,0.00
2019-02-22T04:04:58.841Z,0.00
2019-02-22T04:05:58.835Z,0.00
2019-02-22T04:06:58.828Z,0.00
2019-02-22T04:07:58.818Z,0.00
2019-02-22T04:08:58.810Z,0.00
2019-02-22T04:09:58.799Z,0.00
2019-02-22T04:10:58.798Z,0.00
2019-02-22T04:11:58.788Z,0.00
2019-02-22T04:12:58.784Z,0.00
2019-02-22T04:13:58.774Z,0.00
2019-02-22T04:14:58.768Z,0.00
2019-02-22T04:15:58.759Z,0.00
2019-02-22T04:16:58.753Z,0.00
2019-02-22T04:17:58.750Z,0.00
2019-02-22T04:18:58.741Z,0.00
2019-02-22T04:19:58.733Z,0.00
2019-02-22T04:20:58.728Z,0.00
2019-02-22T04:21:58.722Z,0.00
2019-02-22T04:22:58.708Z,0.00
2019-02-22T04:23:59.230Z,0.00
2019-02-22T04:24:58.695Z,0.00
2019-02-22T04:25:58.696Z,0.00
2019-02-22T04:26:58.684Z,0.00
2019-02-22T04:27:58.677Z,0.00
2019-02-22T04:28:58.668Z,0.00
2019-02-22T04:29:58.667Z,0.00
2019-02-22T04:30:58.660Z,0.00
2019-02-22T04:31:58.651Z,0.00
2019-02-22T04:32:58.641Z,0.00
2019-02-22T04:33:58.629Z,0.00
2019-02-22T04:34:58.638Z,0.00
2019-02-22T04:35:58.620Z,0.00
2019-02-22T04:36:58.612Z,0.00
2019-02-22T04:37:58.606Z,0.00
2019-02-22T04:38:58.607Z,0.00
2019-02-22T04:39:58.589Z,0.00
2019-02-22T04:40:58.581Z,0.00
2019-02-22T04:41:58.573Z,0.00
2019-02-22T04:42:58.610Z,0.00
2019-02-22T04:43:58.559Z,0.00
2019-02-22T04:44:58.554Z,0.00
2019-02-22T04:45:58.547Z,0.00
2019-02-22T04:46:58.541Z,0.00
2019-02-22T04:47:58.530Z,0.00
2019-02-22T04:48:58.525Z,0.00
2019-02-22T04:49:58.517Z,0.00
2019-02-22T04:50:58.517Z,0.00
2019-02-22T04:51:58.503Z,0.00
2019-02-22T04:52:58.496Z,0.00
2019-02-22T04:53:58.487Z,0.00
2019-02-22T04:54:58.483Z,0.00
2019-02-22T04:55:58.473Z,0.00
2019-02-22T04:56:58.467Z,0.00
2019-02-22T04:57:58.459Z,0.00
2019-02-22T04:58:58.455Z,0.00
2019-02-22T04:59:58.447Z,0.00
2019-02-22T05:00:58.439Z,0.00
2019-02-22T05:01:58.431Z,0.00
2019-02-22T05:02:58.425Z,0.00
2019-02-22T05:03:58.414Z,0.00
2019-02-22T05:04:58.408Z,0.00
2019-02-22T05:05:58.402Z,0.00
2019-02-22T05:06:58.392Z,0.00
2019-02-22T05:07:58.384Z,0.00
2019-02-22T05:08:58.385Z,0.00
2019-02-22T05:09:58.377Z,0.00
2019-02-22T05:10:58.367Z,0.00
2019-02-22T05:12:10.083Z,0.00
2019-02-22T05:12:58.346Z,0.00
2019-02-22T05:13:58.340Z,0.00
2019-02-22T05:14:58.333Z,0.00
2019-02-22T05:15:58.331Z,0.00
2019-02-22T05:16:58.322Z,0.00
2019-02-22T05:17:58.366Z,0.00
2019-02-22T05:18:58.305Z,0.00
2019-02-22T05:19:58.301Z,0.00
2019-02-22T05:20:58.293Z,0.00
2019-02-22T05:21:58.286Z,0.00
2019-02-22T05:23:03.736Z,0.00
2019-02-22T05:23:58.272Z,0.00
2019-02-22T05:24:58.255Z,0.00
2019-02-22T05:25:58.252Z,0.00
2019-02-22T05:26:58.246Z,0.00
2019-02-22T05:27:58.238Z,0.00
2019-02-22T05:28:58.237Z,0.00
2019-02-22T05:29:58.229Z,0.00
2019-02-22T05:30:58.221Z,0.00
2019-02-22T05:31:58.217Z,0.00
2019-02-22T05:32:58.208Z,0.00
2019-02-22T05:33:58.195Z,0.00
2019-02-22T05:34:58.194Z,0.00
2019-02-22T05:35:58.183Z,0.00
2019-02-22T05:36:58.176Z,0.00
2019-02-22T05:37:58.166Z,0.00
2019-02-22T05:38:58.160Z,0.00
2019-02-22T05:39:58.154Z,0.00
2019-02-22T05:40:58.161Z,0.00
2019-02-22T05:41:58.141Z,0.00
2019-02-22T05:42:58.144Z,0.00
2019-02-22T05:43:58.126Z,0.00
2019-02-22T05:44:58.121Z,0.00
2019-02-22T05:45:58.111Z,0.00
2019-02-22T05:47:00.560Z,0.00
2019-02-22T05:47:58.099Z,0.00
2019-02-22T05:48:58.092Z,0.00
2019-02-22T05:49:58.121Z,0.00
2019-02-22T05:50:58.076Z,0.00
2019-02-22T05:51:58.067Z,0.00
2019-02-22T05:52:58.067Z,0.00
2019-02-22T05:53:58.059Z,0.00
2019-02-22T05:54:58.049Z,0.00
2019-02-22T05:55:58.044Z,0.00
2019-02-22T05:56:58.035Z,0.00
2019-02-22T05:57:58.028Z,0.00
2019-02-22T05:58:58.019Z,0.00
2019-02-22T05:59:58.013Z,0.00
2019-02-22T06:00:58.013Z,0.00
2019-02-22T06:01:58.030Z,0.00
2019-02-22T06:02:57.989Z,0.00
2019-02-22T06:03:57.987Z,0.00
2019-02-22T06:04:57.974Z,0.00
2019-02-22T06:05:57.970Z,0.00
2019-02-22T06:06:57.967Z,4.00
2019-02-22T06:07:57.963Z,4.00
2019-02-22T06:08:57.948Z,0.00
2019-02-22T06:09:57.944Z,0.00
2019-02-22T06:10:57.935Z,0.00
2019-02-22T06:11:57.929Z,4.00
2019-02-22T06:12:57.923Z,4.00
2019-02-22T06:13:57.917Z,0.00
2019-02-22T06:14:57.912Z,4.00
2019-02-22T06:15:57.904Z,4.00
2019-02-22T06:16:57.893Z,4.00
2019-02-22T06:17:57.887Z,8.00
2019-02-22T06:18:57.886Z,4.00
2019-02-22T06:19:57.873Z,8.00
2019-02-22T06:20:57.869Z,4.00
2019-02-22T06:21:57.863Z,8.00
2019-02-22T06:22:57.853Z,8.00
2019-02-22T06:23:57.847Z,8.00
2019-02-22T06:24:57.840Z,12.00
2019-02-22T06:25:57.840Z,8.00
2019-02-22T06:26:57.836Z,12.00
2019-02-22T06:27:57.823Z,12.00
2019-02-22T06:28:57.809Z,16.00
2019-02-22T06:29:57.802Z,16.00
2019-02-22T06:30:57.804Z,16.00
2019-02-22T06:31:57.796Z,20.00
2019-02-22T06:32:57.783Z,20.00
2019-02-22T06:33:57.782Z,24.00
2019-02-22T06:34:57.772Z,28.00
2019-02-22T06:35:57.767Z,28.00
2019-02-22T06:37:01.837Z,32.00
2019-02-22T06:38:24.465Z,32.00
2019-02-22T06:43:59.592Z,44.00
2019-02-22T06:44:36.982Z,44.00
2019-02-22T06:45:36.993Z,48.00
2019-02-22T06:46:36.972Z,52.00
2019-02-22T06:47:36.966Z,56.00
2019-02-22T06:48:36.956Z,60.00
2019-02-22T06:49:36.953Z,68.00
2019-02-22T06:50:36.942Z,72.00
2019-02-22T06:51:36.939Z,92.00
2019-02-22T06:52:36.933Z,104.00
2019-02-22T06:53:36.921Z,116.00
2019-02-22T06:54:36.917Z,128.00
2019-02-22T06:55:36.913Z,140.00
2019-02-22T06:56:36.913Z,132.00
2019-02-22T06:57:36.896Z,132.00
2019-02-22T06:58:36.894Z,148.00
2019-02-22T06:59:36.885Z,140.00
2019-02-22T07:00:36.881Z,132.00
2019-02-22T07:01:36.867Z,140.00
2019-02-22T07:02:36.864Z,140.00
2019-02-22T07:03:36.857Z,148.00
2019-02-22T07:04:36.851Z,164.00
2019-02-22T07:05:36.838Z,180.00
2019-02-22T07:06:36.836Z,180.00
2019-02-22T07:07:36.830Z,188.00
2019-02-22T07:08:36.823Z,224.00
2019-02-22T07:09:36.814Z,220.00
2019-02-22T07:10:36.809Z,184.00
2019-02-22T07:11:37.831Z,220.00
2019-02-22T07:12:36.806Z,264.00
2019-02-22T07:13:36.794Z,316.00
2019-02-22T07:14:36.782Z,340.00
2019-02-22T07:15:36.774Z,308.00
2019-02-22T07:16:36.771Z,288.00
2019-02-22T07:17:36.761Z,356.00
2019-02-22T07:18:36.754Z,400.00
2019-02-22T07:19:36.747Z,396.00
2019-02-22T07:20:36.738Z,396.00
2019-02-22T07:21:49.353Z,356.00
2019-02-22T07:22:36.723Z,344.00
2019-02-22T07:23:36.718Z,416.00
2019-02-22T07:24:36.717Z,412.00
2019-02-22T07:25:36.703Z,388.00
2019-02-22T07:26:36.697Z,396.00
2019-02-22T07:27:36.694Z,428.00
2019-02-22T07:28:36.685Z,352.00
2019-02-22T07:29:36.682Z,364.00
2019-02-22T07:30:36.673Z,412.00
2019-02-22T07:31:36.673Z,440.00
2019-02-22T07:32:36.660Z,472.00
2019-02-22T07:33:36.649Z,472.00
2019-02-22T07:34:36.644Z,444.00
2019-02-22T07:35:36.640Z,548.00
2019-02-22T07:36:36.633Z,552.00
2019-02-22T07:37:36.623Z,552.00
2019-02-22T07:38:36.620Z,648.00
2019-02-22T07:39:36.610Z,656.00
2019-02-22T07:40:36.607Z,648.00
2019-02-22T07:41:36.601Z,608.00
2019-02-22T07:42:36.592Z,608.00
2019-02-22T07:43:36.583Z,780.00
2019-02-22T07:44:36.578Z,764.00
2019-02-22T07:45:36.569Z,652.00
2019-02-22T07:46:36.560Z,628.00
2019-02-22T07:47:36.554Z,616.00
2019-02-22T07:48:36.549Z,556.00
2019-02-22T07:49:36.545Z,620.00
2019-02-22T07:50:36.543Z,612.00
2019-02-22T07:51:36.529Z,572.00
2019-02-22T07:52:36.520Z,608.00
2019-02-22T07:53:36.523Z,716.00
2019-02-22T07:54:36.511Z,708.00
2019-02-22T07:55:36.504Z,808.00
2019-02-22T07:56:36.501Z,820.00
2019-02-22T07:57:36.492Z,760.00
2019-02-22T07:58:36.481Z,960.00
2019-02-22T07:59:36.481Z,860.00
2019-02-22T08:00:36.468Z,940.00
2019-02-22T08:01:46.889Z,892.00
2019-02-22T08:02:36.454Z,876.00
2019-02-22T08:03:37.431Z,844.00
2019-02-22T08:04:36.444Z,844.00
2019-02-22T08:05:36.434Z,916.00
2019-02-22T08:06:36.432Z,912.00
2019-02-22T08:07:36.423Z,944.00
2019-02-22T08:08:36.432Z,928.00
2019-02-22T08:09:36.418Z,960.00
2019-02-22T08:10:36.401Z,996.00
2019-02-22T08:11:36.401Z,1344.00
2019-02-22T08:12:36.387Z,1380.00
2019-02-22T08:13:36.384Z,1412.00
2019-02-22T08:14:36.377Z,1432.00
2019-02-22T08:15:36.371Z,1304.00
2019-02-22T08:16:36.365Z,1248.00
2019-02-22T08:17:36.352Z,1380.00
2019-02-22T08:18:36.349Z,1412.00
2019-02-22T08:19:36.343Z,1336.00
2019-02-22T08:20:36.335Z,1416.00
2019-02-22T08:21:36.326Z,1308.00
2019-02-22T08:22:36.325Z,1196.00
2019-02-22T08:23:36.317Z,1184.00
2019-02-22T08:24:36.309Z,1192.00
2019-02-22T08:25:36.304Z,1420.00
2019-02-22T08:26:36.302Z,1160.00
2019-02-22T08:27:36.293Z,1416.00
2019-02-22T08:28:36.288Z,1688.00
2019-02-22T08:29:38.268Z,1432.00
2019-02-22T08:30:36.270Z,1604.00
2019-02-22T08:31:36.267Z,1396.00
2019-02-22T08:32:36.257Z,1416.00
2019-02-22T08:33:36.253Z,1316.00
2019-02-22T08:34:36.245Z,1536.00
2019-02-22T08:35:36.245Z,1892.00
2019-02-22T08:36:36.236Z,1864.00
2019-02-22T08:37:36.228Z,1716.00
2019-02-22T08:38:36.220Z,1928.00
2019-02-22T08:39:36.225Z,1852.00
2019-02-22T08:40:36.209Z,1664.00
2019-02-22T08:41:36.197Z,1856.00
2019-02-22T08:42:36.192Z,1672.00
2019-02-22T08:43:36.185Z,1764.00
2019-02-22T08:44:36.179Z,1856.00
2019-02-22T08:45:36.236Z,2100.00
2019-02-22T08:46:36.170Z,2028.00
2019-02-22T08:47:36.161Z,1852.00
2019-02-22T08:48:36.156Z,1960.00
2019-02-22T08:49:36.150Z,2260.00
2019-02-22T08:50:36.150Z,2348.00
2019-02-22T08:51:36.138Z,2260.00
2019-02-22T08:52:36.133Z,2240.00
2019-02-22T08:53:36.135Z,2316.00
2019-02-22T08:54:46.674Z,2404.00
2019-02-22T08:55:36.777Z,2464.00
2019-02-22T08:56:36.108Z,2492.00
2019-02-22T08:57:36.102Z,2328.00
2019-02-22T08:58:36.094Z,2228.00
2019-02-22T08:59:36.088Z,2176.00
2019-02-22T09:00:36.083Z,2236.00
2019-02-22T09:01:36.078Z,2032.00
2019-02-22T09:02:36.078Z,1916.00
2019-02-22T09:03:36.063Z,1628.00
2019-02-22T09:04:36.060Z,1736.00
2019-02-22T09:05:36.047Z,1852.00
2019-02-22T09:06:36.045Z,1868.00
2019-02-22T09:07:36.040Z,2120.00
2019-02-22T09:08:36.042Z,1968.00
2019-02-22T09:09:36.029Z,1928.00
2019-02-22T09:10:36.021Z,2116.00
2019-02-22T09:11:36.016Z,1524.00
2019-02-22T09:12:36.007Z,1596.00
2019-02-22T09:13:43.675Z,1520.00
2019-02-22T09:14:35.996Z,1604.00
2019-02-22T09:15:35.993Z,1712.00
2019-02-22T09:16:36.119Z,1868.00
2019-02-22T09:17:35.975Z,1928.00
2019-02-22T09:18:35.977Z,1968.00
2019-02-22T09:19:35.964Z,1988.00
2019-02-22T09:20:35.953Z,2008.00
2019-02-22T09:21:35.955Z,2040.00
2019-02-22T09:22:35.950Z,2148.00
2019-02-22T09:23:35.940Z,2300.00
2019-02-22T09:24:35.939Z,2384.00
2019-02-22T09:25:35.929Z,2444.00
2019-02-22T09:26:35.925Z,2540.00
2019-02-22T09:27:35.921Z,2392.00
2019-02-22T09:28:35.914Z,2316.00
2019-02-22T09:29:35.907Z,2288.00
2019-02-22T09:30:35.897Z,2312.00
2019-02-22T09:31:35.891Z,2552.00
2019-02-22T09:32:35.885Z,2588.00
2019-02-22T09:33:35.884Z,2528.00
2019-02-22T09:34:35.876Z,2608.00
2019-02-22T09:35:35.967Z,2660.00
2019-02-22T09:36:35.864Z,2664.00
2019-02-22T09:37:35.854Z,2628.00
2019-02-22T09:38:35.852Z,2584.00
2019-02-22T09:39:35.845Z,2508.00
2019-02-22T09:40:35.837Z,2508.00
2019-02-22T09:41:35.836Z,2444.00
2019-02-22T09:42:35.828Z,2208.00
2019-02-22T09:43:35.816Z,2216.00
2019-02-22T09:44:35.814Z,2364.00
2019-02-22T09:45:35.815Z,2728.00
2019-02-22T09:46:35.813Z,2724.00
2019-02-22T09:47:35.800Z,2416.00
2019-02-22T09:48:35.796Z,2252.00
2019-02-22T09:49:35.784Z,2236.00
2019-02-22T09:50:35.807Z,2396.00
2019-02-22T09:51:35.817Z,2568.00
2019-02-22T09:52:35.767Z,2768.00
2019-02-22T09:53:35.767Z,2816.00
2019-02-22T09:54:35.759Z,3068.00
2019-02-22T09:55:35.750Z,3304.00
2019-02-22T09:56:35.746Z,3324.00
2019-02-22T09:57:35.739Z,3164.00
2019-02-22T09:58:35.733Z,3024.00
2019-02-22T09:59:35.734Z,3048.00
2019-02-22T10:00:35.727Z,3152.00
2019-02-22T10:01:35.720Z,3172.00
2019-02-22T10:02:35.717Z,3176.00
2019-02-22T10:03:35.707Z,3312.00
2019-02-22T10:04:35.700Z,3136.00
2019-02-22T10:05:35.698Z,3280.00
2019-02-22T10:06:35.695Z,3412.00
2019-02-22T10:07:35.690Z,3472.00
2019-02-22T10:08:35.681Z,3468.00
2019-02-22T10:09:35.674Z,3400.00
2019-02-22T10:10:35.670Z,3384.00
2019-02-22T10:11:35.663Z,3368.00
2019-02-22T10:12:35.659Z,3584.00
2019-02-22T10:13:35.655Z,3920.00
2019-02-22T10:14:35.645Z,4092.00
2019-02-22T10:15:35.643Z,3840.00
2019-02-22T10:16:35.636Z,3640.00
2019-02-22T10:17:35.635Z,3420.00
2019-02-22T10:18:35.627Z,3232.00
2019-02-22T10:19:35.626Z,3816.00
2019-02-22T10:20:35.625Z,3704.00
2019-02-22T10:21:35.615Z,3428.00
2019-02-22T10:22:35.604Z,3844.00
2019-02-22T10:23:35.600Z,4072.00
2019-02-22T10:24:35.600Z,4192.00
2019-02-22T10:25:35.592Z,4176.00
2019-02-22T10:26:35.588Z,4188.00
2019-02-22T10:27:35.583Z,4324.00
2019-02-22T10:28:35.579Z,4428.00
2019-02-22T10:29:35.569Z,4012.00
2019-02-22T10:30:35.567Z,3544.00
2019-02-22T10:31:35.563Z,3524.00
2019-02-22T10:32:35.562Z,3560.00
2019-02-22T10:33:36.907Z,3692.00
2019-02-22T10:34:35.550Z,4324.00
2019-02-22T10:35:35.542Z,4636.00
2019-02-22T10:36:44.649Z,3800.00
2019-02-22T10:37:35.531Z,3016.00
2019-02-22T10:38:36.084Z,2896.00
2019-02-22T10:39:35.526Z,2324.00
2019-02-22T10:40:35.527Z,1848.00
2019-02-22T10:41:35.513Z,2036.00
2019-02-22T10:42:35.510Z,1980.00
2019-02-22T10:43:35.498Z,1832.00
2019-02-22T10:44:35.503Z,1780.00
2019-02-22T10:45:37.008Z,1892.00
2019-02-22T10:46:35.498Z,1872.00
2019-02-22T10:47:35.488Z,1884.00
2019-02-22T10:48:35.481Z,2016.00
2019-02-22T10:49:35.479Z,1856.00
2019-02-22T10:50:35.474Z,2024.00
2019-02-22T10:51:35.509Z,2564.00
2019-02-22T10:52:35.463Z,2824.00
2019-02-22T10:53:35.456Z,2812.00
2019-02-22T10:54:35.455Z,2780.00
2019-02-22T10:55:35.450Z,3080.00
2019-02-22T10:56:35.445Z,3708.00
2019-02-22T10:57:35.452Z,4296.00
2019-02-22T10:58:35.434Z,4536.00
2019-02-22T10:59:35.463Z,4448.00
2019-02-22T11:00:35.433Z,4452.00
2019-02-22T11:01:35.421Z,4520.00
2019-02-22T11:02:35.422Z,4348.00
2019-02-22T11:03:35.410Z,4224.00
2019-02-22T11:04:35.407Z,3780.00
2019-02-22T11:05:35.399Z,3132.00
2019-02-22T11:06:35.394Z,3168.00
2019-02-22T11:07:37.212Z,3488.00
2019-02-22T11:08:35.390Z,3776.00
2019-02-22T11:09:35.382Z,3808.00
2019-02-22T11:10:35.388Z,4200.00
2019-02-22T11:11:35.373Z,4552.00
2019-02-22T11:12:35.367Z,4832.00
2019-02-22T11:13:35.362Z,4884.00
2019-02-22T11:14:35.359Z,5132.00
2019-02-22T11:15:35.354Z,5332.00
2019-02-22T11:16:35.367Z,5332.00
2019-02-22T11:17:35.351Z,5212.00
2019-02-22T11:18:35.343Z,5000.00
2019-02-22T11:19:35.341Z,4972.00
2019-02-22T11:20:35.332Z,5192.00
2019-02-22T11:21:35.332Z,5108.00
2019-02-22T11:22:35.327Z,4872.00
2019-02-22T11:23:35.330Z,4540.00
2019-02-22T11:24:35.320Z,4256.00
2019-02-22T11:25:35.312Z,4248.00
2019-02-22T11:26:35.309Z,4284.00
2019-02-22T11:27:35.306Z,4084.00
2019-02-22T11:28:35.304Z,3856.00
2019-02-22T11:29:35.301Z,3808.00
2019-02-22T11:30:35.298Z,3716.00
2019-02-22T11:31:35.294Z,3596.00
2019-02-22T11:32:35.290Z,3780.00
2019-02-22T11:33:35.282Z,4120.00
2019-02-22T11:34:35.280Z,4380.00
2019-02-22T11:35:35.280Z,4372.00
2019-02-22T11:36:35.274Z,4064.00
2019-02-22T11:37:35.270Z,3968.00
2019-02-22T11:38:35.265Z,4092.00
2019-02-22T11:39:35.261Z,3892.00
2019-02-22T11:40:35.272Z,3932.00
2019-02-22T11:41:35.256Z,3960.00
2019-02-22T11:42:35.252Z,4156.00
2019-02-22T11:43:35.248Z,4264.00
2019-02-22T11:44:40.141Z,4336.00
2019-02-22T11:45:35.238Z,4424.00
2019-02-22T11:46:35.254Z,4288.00
2019-02-22T11:47:35.234Z,4112.00
2019-02-22T11:48:35.236Z,3940.00
2019-02-22T11:49:35.226Z,3860.00
2019-02-22T11:50:35.224Z,3796.00
2019-02-22T11:51:35.219Z,3584.00
2019-02-22T11:52:35.223Z,3396.00
2019-02-22T11:53:35.212Z,3712.00
2019-02-22T11:54:35.207Z,3772.00
2019-02-22T11:55:35.231Z,3620.00
2019-02-22T11:56:35.201Z,3536.00
2019-02-22T11:57:35.197Z,3556.00
2019-02-22T11:58:35.213Z,3776.00
2019-02-22T11:59:35.188Z,4000.00
2019-02-22T12:00:35.186Z,3532.00
2019-02-22T12:01:35.184Z,2884.00
2019-02-22T12:02:35.181Z,2084.00
2019-02-22T12:03:35.179Z,1832.00
2019-02-22T12:04:35.174Z,1772.00
2019-02-22T12:05:35.173Z,1796.00
2019-02-22T12:06:35.175Z,1836.00
2019-02-22T12:07:35.162Z,1936.00
2019-02-22T12:08:35.158Z,2116.00
2019-02-22T12:09:35.151Z,2256.00
2019-02-22T12:10:35.150Z,2416.00
2019-02-22T12:11:35.143Z,2488.00
2019-02-22T12:12:35.140Z,2620.00
2019-02-22T12:13:35.139Z,2744.00
2019-02-22T12:14:35.134Z,2824.00
2019-02-22T12:15:35.130Z,3000.00
2019-02-22T12:16:35.127Z,3028.00
2019-02-22T12:17:35.122Z,3172.00
2019-02-22T12:18:36.532Z,3356.00
2019-02-22T12:19:35.120Z,3616.00
2019-02-22T12:20:35.109Z,3564.00
2019-02-22T12:21:35.123Z,3588.00
2019-02-22T12:22:35.107Z,3464.00
2019-02-22T12:23:35.098Z,3256.00
2019-02-22T12:24:35.095Z,3236.00
2019-02-22T12:25:35.095Z,3232.00
2019-02-22T12:26:35.085Z,3112.00
2019-02-22T12:27:35.084Z,3160.00
2019-02-22T12:28:35.083Z,3540.00
2019-02-22T12:29:35.075Z,3892.00
2019-02-22T12:30:35.071Z,4100.00
2019-02-22T12:31:35.077Z,3736.00
2019-02-22T12:32:35.062Z,3556.00
2019-02-22T12:33:35.064Z,3544.00
2019-02-22T12:34:35.060Z,4036.00
2019-02-22T12:35:35.053Z,4416.00
2019-02-22T12:36:35.049Z,4392.00
2019-02-22T12:37:35.044Z,3948.00
2019-02-22T12:38:35.040Z,3344.00
2019-02-22T12:39:35.039Z,2968.00
2019-02-22T12:40:35.040Z,2716.00
2019-02-22T12:41:35.035Z,2320.00
2019-02-22T12:42:35.050Z,1856.00
2019-02-22T12:43:35.024Z,1600.00
2019-02-22T12:44:35.020Z,1464.00
2019-02-22T12:45:35.018Z,1304.00
2019-02-22T12:46:35.017Z,1408.00
2019-02-22T12:47:35.011Z,1712.00
2019-02-22T12:48:35.007Z,1884.00